Time;durP1;ratioP1;P1;durP2;ratioP2;P2;SDS_P1;SDS_P2;PMS_P1;PMS_P2;Temp;Humidity;BMP_temperature;BMP_pressure;BME280_temperature;BME280_humidity;BME280_pressure;Samples;Min_cycle;Max_cycle;Signal;HPM_P1;HPM_P2
2024/01/21 00:02:03;;;;;;;10.87;4.83;;;4.40;99.90;;;;;;4967883;28;20201;-66
2024/01/21 00:04:30;;;;;;;11.20;5.00;;;4.40;99.90;;;;;;4992887;28;20191;-66
2024/01/21 00:06:57;;;;;;;9.50;4.30;;;4.40;99.90;;;;;;4992593;28;20236;-66
2024/01/21 00:09:24;;;;;;;9.27;4.50;;;4.40;99.90;;;;;;4993299;28;20211;-66
2024/01/21 00:11:51;;;;;;;11.33;4.47;;;4.40;99.90;;;;;;4994855;28;20224;-67
2024/01/21 00:14:18;;;;;;;9.60;4.80;;;4.30;99.90;;;;;;4992313;28;20640;-67
2024/01/21 00:16:45;;;;;;;14.77;5.00;;;4.30;99.90;;;;;;4991773;28;20276;-65
2024/01/21 00:19:13;;;;;;;13.43;5.00;;;4.30;99.90;;;;;;4992665;28;20189;-66
2024/01/21 00:21:41;;;;;;;11.27;4.53;;;4.30;99.90;;;;;;4988136;28;20197;-65
2024/01/21 00:24:08;;;;;;;14.27;5.50;;;4.30;99.90;;;;;;4993411;28;20200;-65
2024/01/21 00:26:35;;;;;;;11.40;5.30;;;4.30;99.90;;;;;;4992739;28;20204;-66
2024/01/21 00:29:02;;;;;;;10.83;4.90;;;4.30;99.90;;;;;;4980555;28;20222;-66
2024/01/21 00:31:30;;;;;;;12.83;5.07;;;4.30;99.90;;;;;;4997248;28;20192;-66
2024/01/21 00:33:57;;;;;;;9.67;4.63;;;4.20;99.90;;;;;;4990830;28;20219;-65
2024/01/21 00:36:27;;;;;;;11.20;5.13;;;4.20;99.90;;;;;;4990884;28;20230;-66
2024/01/21 00:38:54;;;;;;;10.60;4.40;;;4.20;99.90;;;;;;4992569;28;20222;-66
2024/01/21 00:41:21;;;;;;;9.93;4.87;;;4.10;99.90;;;;;;4993367;28;20204;-65
2024/01/21 00:43:48;;;;;;;9.73;5.07;;;4.10;99.90;;;;;;4991734;28;20299;-66
2024/01/21 00:46:15;;;;;;;10.50;4.87;;;4.10;99.90;;;;;;4987624;28;20252;-66
2024/01/21 00:48:42;;;;;;;12.47;5.43;;;4.10;99.90;;;;;;4975272;28;20217;-66
2024/01/21 00:51:09;;;;;;;11.90;5.70;;;4.00;99.90;;;;;;4992425;28;20228;-66
2024/01/21 00:53:38;;;;;;;10.37;5.27;;;4.00;99.90;;;;;;4994080;28;20196;-67
2024/01/21 00:56:05;;;;;;;13.97;6.10;;;4.00;99.90;;;;;;4975064;28;20274;-66
2024/01/21 00:58:32;;;;;;;12.37;5.63;;;3.90;99.90;;;;;;4992216;28;20612;-67
2024/01/21 01:00:59;;;;;;;16.53;6.90;;;3.90;99.90;;;;;;4992119;28;20199;-66
2024/01/21 01:03:26;;;;;;;16.87;6.20;;;3.90;99.90;;;;;;4992224;28;20199;-66
2024/01/21 01:05:54;;;;;;;10.00;5.20;;;3.90;99.90;;;;;;4985787;28;20238;-66
2024/01/21 01:08:21;;;;;;;9.20;4.90;;;3.90;99.90;;;;;;4978924;28;20276;-67
2024/01/21 01:10:49;;;;;;;11.27;5.27;;;3.90;99.90;;;;;;4984703;28;20278;-67
2024/01/21 01:13:16;;;;;;;11.10;6.27;;;3.90;99.90;;;;;;4991747;28;20231;-68
2024/01/21 01:15:43;;;;;;;13.97;7.07;;;3.90;99.90;;;;;;4994440;28;20254;-68
2024/01/21 01:18:10;;;;;;;15.30;6.67;;;3.90;99.90;;;;;;4991881;28;20202;-68
2024/01/21 01:20:37;;;;;;;13.30;6.63;;;3.90;99.90;;;;;;4988541;28;20279;-68
2024/01/21 01:23:05;;;;;;;16.93;7.07;;;3.90;99.90;;;;;;4992228;28;20263;-68
2024/01/21 01:25:32;;;;;;;16.13;7.63;;;3.90;99.90;;;;;;4993053;28;20353;-68
2024/01/21 01:28:00;;;;;;;21.00;7.77;;;3.90;99.90;;;;;;4993814;28;20191;-67
2024/01/21 01:30:27;;;;;;;22.23;8.10;;;4.00;99.90;;;;;;4993297;28;20298;-67
2024/01/21 01:32:54;;;;;;;16.57;7.87;;;3.90;99.90;;;;;;4996539;28;20664;-67
2024/01/21 01:35:21;;;;;;;22.10;9.03;;;3.90;99.90;;;;;;4995461;28;20199;-67
2024/01/21 01:37:50;;;;;;;27.60;10.37;;;3.90;99.90;;;;;;4988609;28;20231;-67
2024/01/21 01:40:20;;;;;;;26.77;10.43;;;4.00;99.90;;;;;;4992660;28;20287;-68
2024/01/21 01:42:54;;;;;;;28.20;10.30;;;3.90;99.90;;;;;;4993446;28;20571;-68
2024/01/21 01:45:22;;;;;;;22.67;9.10;;;3.90;99.90;;;;;;4994316;28;20194;-67
2024/01/21 01:47:50;;;;;;;18.73;7.80;;;3.90;99.90;;;;;;4989075;28;20667;-68
2024/01/21 01:50:17;;;;;;;22.37;8.70;;;3.90;99.90;;;;;;4988778;28;20575;-67
2024/01/21 01:52:45;;;;;;;19.03;8.03;;;3.90;99.90;;;;;;4986662;28;20633;-68
2024/01/21 01:55:13;;;;;;;18.60;7.77;;;3.90;99.90;;;;;;4992895;28;20243;-67
2024/01/21 01:57:40;;;;;;;16.37;7.13;;;3.80;99.90;;;;;;4992245;28;20224;-68
2024/01/21 02:00:08;;;;;;;15.67;7.20;;;3.80;99.90;;;;;;4992282;28;20211;-68
2024/01/21 02:02:41;;;;;;;18.10;8.03;;;3.80;99.90;;;;;;4982050;28;20211;-67
2024/01/21 02:05:09;;;;;;;13.97;6.97;;;3.80;99.90;;;;;;4990845;28;20311;-68
2024/01/21 02:07:36;;;;;;;15.40;7.13;;;3.80;99.90;;;;;;4982060;28;20319;-68
2024/01/21 02:10:04;;;;;;;16.37;7.70;;;3.80;99.90;;;;;;4991409;28;20298;-68
2024/01/21 02:12:31;;;;;;;17.50;7.83;;;3.70;99.90;;;;;;4990231;28;20230;-68
2024/01/21 02:14:58;;;;;;;15.33;7.03;;;3.70;99.90;;;;;;4995247;28;20199;-68
2024/01/21 02:17:25;;;;;;;18.03;7.17;;;3.70;99.90;;;;;;4991172;28;20722;-67
2024/01/21 02:19:54;;;;;;;14.00;6.07;;;3.70;99.90;;;;;;4987246;28;20207;-68
2024/01/21 02:22:24;;;;;;;13.27;6.03;;;3.70;99.90;;;;;;4998155;28;20196;-66
2024/01/21 02:24:53;;;;;;;15.07;7.07;;;3.70;99.90;;;;;;4970793;28;20204;-67
2024/01/21 02:27:20;;;;;;;13.83;5.93;;;3.70;99.90;;;;;;4999672;28;20246;-67
2024/01/21 02:29:47;;;;;;;12.17;5.97;;;3.70;99.90;;;;;;4995738;28;20761;-67
2024/01/21 02:32:14;;;;;;;11.97;5.40;;;3.70;99.90;;;;;;4990895;28;20218;-67
2024/01/21 02:34:41;;;;;;;12.47;5.80;;;3.80;99.90;;;;;;4975841;28;20291;-67
2024/01/21 02:37:08;;;;;;;15.17;6.20;;;3.80;99.90;;;;;;4991179;28;20826;-68
2024/01/21 02:39:35;;;;;;;10.50;5.50;;;3.90;99.90;;;;;;4985397;28;20651;-67
2024/01/21 02:42:04;;;;;;;11.80;5.63;;;3.90;99.90;;;;;;4989086;28;20225;-67
2024/01/21 02:44:31;;;;;;;10.23;4.70;;;3.90;99.90;;;;;;4993724;28;20223;-67
2024/01/21 02:46:58;;;;;;;13.10;5.60;;;3.90;99.90;;;;;;4991796;28;21041;-68
2024/01/21 02:49:28;;;;;;;12.33;5.67;;;3.90;99.90;;;;;;4987431;28;20216;-67
2024/01/21 02:51:55;;;;;;;14.13;6.37;;;3.90;99.90;;;;;;4991267;28;20282;-67
2024/01/21 02:54:22;;;;;;;17.63;6.60;;;3.90;99.90;;;;;;4983525;28;20628;-68
2024/01/21 02:56:49;;;;;;;15.30;6.57;;;3.90;99.90;;;;;;4986113;28;20734;-67
2024/01/21 02:59:18;;;;;;;15.70;7.53;;;3.90;99.90;;;;;;4993518;28;20664;-66
2024/01/21 03:01:45;;;;;;;19.03;7.87;;;3.90;99.90;;;;;;4988285;28;20634;-66
2024/01/21 03:04:12;;;;;;;13.77;5.60;;;3.90;99.90;;;;;;4991081;28;20216;-67
2024/01/21 03:06:39;;;;;;;13.43;6.53;;;3.90;99.90;;;;;;4992090;28;20255;-67
2024/01/21 03:09:06;;;;;;;9.30;5.17;;;3.90;99.90;;;;;;4990248;28;20204;-67
2024/01/21 03:11:37;;;;;;;12.23;5.47;;;3.90;99.90;;;;;;4992660;28;20196;-67
2024/01/21 03:14:04;;;;;;;11.63;5.90;;;3.90;99.90;;;;;;4980920;28;20301;-67
2024/01/21 03:16:32;;;;;;;11.33;5.67;;;3.90;99.90;;;;;;4992289;28;20644;-66
2024/01/21 03:18:59;;;;;;;13.80;6.40;;;3.90;99.90;;;;;;4988979;28;20663;-67
2024/01/21 03:21:26;;;;;;;13.63;6.17;;;3.90;99.90;;;;;;4989606;28;20199;-67
2024/01/21 03:23:53;;;;;;;15.43;6.50;;;4.00;99.90;;;;;;4973194;28;20204;-67
2024/01/21 03:26:20;;;;;;;20.17;7.90;;;4.00;99.90;;;;;;4995160;28;20204;-67
2024/01/21 03:28:47;;;;;;;20.60;8.40;;;4.00;99.90;;;;;;4988621;28;20250;-67
2024/01/21 03:31:14;;;;;;;21.83;8.73;;;4.00;99.90;;;;;;4988940;28;20643;-67
2024/01/21 03:33:43;;;;;;;23.33;9.00;;;4.00;99.90;;;;;;4992913;28;20204;-66
2024/01/21 03:36:12;;;;;;;18.03;7.37;;;3.90;99.90;;;;;;4989569;28;20270;-67
2024/01/21 03:38:39;;;;;;;18.70;7.23;;;3.90;99.90;;;;;;4989284;28;20203;-67
2024/01/21 03:41:06;;;;;;;17.43;7.43;;;3.90;99.90;;;;;;4991676;28;20275;-67
2024/01/21 03:43:34;;;;;;;20.30;7.07;;;3.90;99.90;;;;;;4990545;28;20200;-67
2024/01/21 03:46:02;;;;;;;23.33;9.13;;;3.90;99.90;;;;;;4988026;28;20282;-67
2024/01/21 03:48:29;;;;;;;23.37;9.00;;;3.80;99.90;;;;;;4991095;28;20628;-66
2024/01/21 03:50:57;;;;;;;18.13;8.27;;;3.90;99.90;;;;;;4990420;28;20219;-67
2024/01/21 03:53:24;;;;;;;16.00;8.00;;;3.80;99.90;;;;;;4988369;28;20732;-67
2024/01/21 03:55:51;;;;;;;21.50;8.77;;;3.80;99.90;;;;;;4982633;28;20275;-68
2024/01/21 03:58:18;;;;;;;20.53;9.07;;;3.90;99.90;;;;;;4989233;28;20265;-69
2024/01/21 04:00:45;;;;;;;18.93;8.17;;;3.90;99.90;;;;;;4992927;28;20204;-69
2024/01/21 04:03:13;;;;;;;20.93;7.53;;;3.80;99.90;;;;;;4992062;28;20278;-69
2024/01/21 04:05:40;;;;;;;20.03;7.93;;;3.80;99.90;;;;;;4991965;28;20242;-69
2024/01/21 04:08:08;;;;;;;18.47;7.93;;;3.70;99.90;;;;;;4991070;28;20271;-68
2024/01/21 04:10:35;;;;;;;16.87;7.40;;;3.80;99.90;;;;;;4992193;28;20294;-68
2024/01/21 04:13:03;;;;;;;15.93;7.17;;;3.80;99.90;;;;;;4989336;28;20247;-68
2024/01/21 04:15:30;;;;;;;16.07;7.03;;;3.80;99.90;;;;;;4989864;28;20196;-69
2024/01/21 04:17:57;;;;;;;17.93;7.23;;;3.80;99.90;;;;;;4990117;28;20277;-66
2024/01/21 04:20:24;;;;;;;15.50;7.07;;;3.80;99.90;;;;;;4988737;28;20690;-67
2024/01/21 04:22:51;;;;;;;14.27;6.13;;;3.90;99.90;;;;;;4975939;28;20203;-67
2024/01/21 04:25:20;;;;;;;16.60;7.27;;;3.90;99.90;;;;;;4987305;28;20623;-68
2024/01/21 04:27:47;;;;;;;14.40;6.53;;;3.90;99.90;;;;;;4993628;28;20200;-68
2024/01/21 04:30:14;;;;;;;17.33;7.17;;;3.90;99.90;;;;;;4990397;28;20223;-69
2024/01/21 04:32:41;;;;;;;17.07;7.17;;;3.90;99.90;;;;;;4972701;28;20207;-68
2024/01/21 04:35:09;;;;;;;11.70;6.10;;;3.90;99.90;;;;;;4988728;28;20195;-67
2024/01/21 04:37:36;;;;;;;11.90;5.87;;;3.90;99.90;;;;;;4988648;28;20200;-67
2024/01/21 04:40:04;;;;;;;14.03;6.70;;;3.90;99.90;;;;;;4989509;28;20299;-68
2024/01/21 04:42:32;;;;;;;8.97;4.80;;;3.90;99.90;;;;;;4989145;28;20191;-68
2024/01/21 04:44:59;;;;;;;8.50;4.63;;;3.90;99.90;;;;;;4991881;28;20667;-67
2024/01/21 04:47:26;;;;;;;10.47;5.87;;;3.90;99.90;;;;;;4987323;28;20679;-67
2024/01/21 04:49:53;;;;;;;8.73;5.10;;;3.90;99.90;;;;;;4992866;28;20219;-68
2024/01/21 04:52:21;;;;;;;12.43;5.90;;;4.00;99.90;;;;;;4995218;28;20584;-68
2024/01/21 04:54:48;;;;;;;9.30;4.77;;;4.00;99.90;;;;;;4989800;28;20628;-69
2024/01/21 04:57:15;;;;;;;9.47;5.87;;;4.00;99.90;;;;;;4995562;28;20199;-67
2024/01/21 04:59:44;;;;;;;10.30;5.53;;;3.90;99.90;;;;;;4993067;28;20208;-67
2024/01/21 05:02:11;;;;;;;10.57;5.57;;;4.00;99.90;;;;;;4984272;28;20276;-67
2024/01/21 05:04:38;;;;;;;13.83;6.73;;;4.00;99.90;;;;;;4983838;28;20227;-67
2024/01/21 05:07:05;;;;;;;19.50;9.23;;;4.00;99.90;;;;;;4973966;28;20196;-67
2024/01/21 05:09:32;;;;;;;18.00;8.50;;;4.10;99.90;;;;;;4997397;28;20607;-68
2024/01/21 05:11:59;;;;;;;16.03;7.37;;;4.10;99.90;;;;;;4997027;28;20261;-68
2024/01/21 05:14:26;;;;;;;15.57;7.73;;;4.10;99.90;;;;;;4992111;28;20277;-68
2024/01/21 05:16:55;;;;;;;16.90;8.57;;;4.20;99.90;;;;;;4985617;28;20199;-67
2024/01/21 05:19:22;;;;;;;18.10;9.27;;;4.20;99.90;;;;;;4993248;28;20297;-68
2024/01/21 05:21:49;;;;;;;18.93;9.43;;;4.20;99.90;;;;;;4984802;28;20595;-68
2024/01/21 05:24:16;;;;;;;20.27;9.27;;;4.20;99.90;;;;;;4990520;28;20212;-69
2024/01/21 05:26:44;;;;;;;21.70;10.07;;;4.20;99.90;;;;;;4987660;28;20258;-69
2024/01/21 05:29:11;;;;;;;28.60;10.77;;;4.20;99.90;;;;;;4988454;28;20196;-70
2024/01/21 05:31:38;;;;;;;22.93;9.53;;;4.20;99.90;;;;;;4984673;28;20217;-69
2024/01/21 05:34:07;;;;;;;22.93;10.70;;;4.20;99.90;;;;;;4997717;28;20207;-69
2024/01/21 05:36:34;;;;;;;20.03;9.43;;;4.10;99.90;;;;;;4988296;28;20607;-69
2024/01/21 05:39:01;;;;;;;23.87;10.77;;;4.10;99.90;;;;;;4993586;28;20667;-70
2024/01/21 05:41:28;;;;;;;19.30;9.60;;;4.20;99.90;;;;;;4992432;28;20663;-68
2024/01/21 05:43:56;;;;;;;18.50;9.23;;;4.20;99.90;;;;;;4992810;28;20207;-69
2024/01/21 05:46:23;;;;;;;19.57;9.70;;;4.20;99.90;;;;;;4992847;28;20191;-67
2024/01/21 05:48:50;;;;;;;18.07;8.70;;;4.20;99.90;;;;;;4993206;28;20207;-68
2024/01/21 05:51:18;;;;;;;21.87;10.73;;;4.20;99.90;;;;;;4989885;28;20223;-68
2024/01/21 05:53:45;;;;;;;21.30;9.70;;;4.20;99.90;;;;;;5001117;28;20664;-68
2024/01/21 05:56:12;;;;;;;19.13;8.90;;;4.20;99.90;;;;;;4991717;28;20199;-68
2024/01/21 05:58:39;;;;;;;17.83;8.27;;;4.20;99.90;;;;;;4990760;28;20271;-68
2024/01/21 06:01:06;;;;;;;20.53;8.63;;;4.20;99.90;;;;;;4992485;28;20196;-67
2024/01/21 06:03:33;;;;;;;14.53;8.03;;;4.20;99.90;;;;;;4984254;28;20201;-68
2024/01/21 06:06:01;;;;;;;19.67;9.33;;;4.20;99.90;;;;;;4970210;28;20903;-68
2024/01/21 06:08:29;;;;;;;17.10;8.50;;;4.30;99.90;;;;;;4993855;28;20607;-67
2024/01/21 06:10:56;;;;;;;15.70;8.40;;;4.30;99.90;;;;;;4991979;28;20209;-68
2024/01/21 06:13:23;;;;;;;14.27;7.67;;;4.30;99.90;;;;;;4992687;28;20255;-67
2024/01/21 06:15:50;;;;;;;12.77;5.97;;;4.30;99.90;;;;;;4986522;28;20258;-68
2024/01/21 06:18:17;;;;;;;14.10;7.23;;;4.30;99.90;;;;;;4983239;28;20215;-67
2024/01/21 06:20:45;;;;;;;18.70;8.53;;;4.40;99.90;;;;;;4991552;28;20200;-67
2024/01/21 06:23:12;;;;;;;15.00;6.87;;;4.40;99.90;;;;;;4986622;28;20200;-66
2024/01/21 06:25:40;;;;;;;13.23;6.93;;;4.40;99.90;;;;;;4970760;28;20204;-66
2024/01/21 06:28:07;;;;;;;13.40;7.33;;;4.40;99.90;;;;;;4990511;28;20192;-67
2024/01/21 06:30:34;;;;;;;16.87;7.47;;;4.40;99.90;;;;;;4980200;28;20224;-67
2024/01/21 06:33:01;;;;;;;10.20;6.33;;;4.40;99.90;;;;;;4992323;28;20203;-68
2024/01/21 06:35:28;;;;;;;17.03;7.87;;;4.30;99.90;;;;;;4993263;28;20636;-68
2024/01/21 06:37:55;;;;;;;15.70;8.07;;;4.30;99.90;;;;;;4991694;28;20686;-68
2024/01/21 06:40:22;;;;;;;17.90;8.07;;;4.40;99.90;;;;;;4979079;28;20208;-68
2024/01/21 06:42:51;;;;;;;16.83;7.93;;;4.40;99.90;;;;;;4982332;28;20197;-68
2024/01/21 06:45:18;;;;;;;19.80;8.73;;;4.40;99.90;;;;;;4990859;28;20187;-68
2024/01/21 06:47:45;;;;;;;16.17;7.93;;;4.40;99.90;;;;;;4985057;28;20217;-69
2024/01/21 06:50:12;;;;;;;13.27;6.50;;;4.40;99.90;;;;;;4988906;28;20756;-69
2024/01/21 06:52:39;;;;;;;18.37;8.60;;;4.40;99.90;;;;;;4992337;28;20294;-69
2024/01/21 06:55:07;;;;;;;20.03;8.97;;;4.40;99.90;;;;;;4991376;28;20617;-69
2024/01/21 06:57:34;;;;;;;18.90;8.93;;;4.40;99.90;;;;;;4989332;28;20196;-69
2024/01/21 07:00:05;;;;;;;17.63;8.83;;;4.50;99.90;;;;;;4984244;28;20206;-69
2024/01/21 07:02:32;;;;;;;17.50;8.70;;;4.50;99.90;;;;;;4988929;28;20209;-66
2024/01/21 07:05:00;;;;;;;19.27;9.00;;;4.50;99.90;;;;;;4989366;28;20640;-67
2024/01/21 07:07:27;;;;;;;20.60;9.53;;;4.50;99.90;;;;;;4987995;28;20227;-68
2024/01/21 07:09:54;;;;;;;13.77;7.70;;;4.50;99.90;;;;;;4991671;28;20282;-67
2024/01/21 07:12:21;;;;;;;20.53;9.20;;;4.50;99.90;;;;;;4989098;28;20219;-68
2024/01/21 07:14:48;;;;;;;22.03;10.57;;;4.40;99.90;;;;;;4992153;28;20199;-67
2024/01/21 07:17:16;;;;;;;18.37;9.60;;;4.40;99.90;;;;;;4982182;28;20197;-68
2024/01/21 07:19:44;;;;;;;17.60;9.13;;;4.50;99.90;;;;;;4991248;28;20242;-67
2024/01/21 07:22:11;;;;;;;21.83;9.70;;;4.50;99.90;;;;;;4990862;28;20274;-68
2024/01/21 07:24:38;;;;;;;19.33;10.07;;;4.40;99.90;;;;;;4986453;28;20258;-67
2024/01/21 07:27:05;;;;;;;17.90;9.33;;;4.40;99.90;;;;;;4990315;28;20262;-69
2024/01/21 07:29:32;;;;;;;19.40;9.57;;;4.40;99.90;;;;;;4996085;28;20249;-68
2024/01/21 07:31:59;;;;;;;22.97;8.83;;;4.40;99.90;;;;;;4977888;28;20624;-68
2024/01/21 07:34:28;;;;;;;18.40;8.90;;;4.50;99.90;;;;;;4990872;28;20262;-68
2024/01/21 07:36:55;;;;;;;20.53;10.00;;;4.50;99.90;;;;;;4979037;28;20286;-68
2024/01/21 07:39:22;;;;;;;21.50;9.93;;;4.50;99.90;;;;;;4982779;28;20371;-67
2024/01/21 07:41:49;;;;;;;19.90;10.07;;;4.50;99.90;;;;;;4985015;28;20577;-67
2024/01/21 07:44:16;;;;;;;17.17;8.70;;;4.50;99.90;;;;;;4980601;28;20688;-67
2024/01/21 07:46:43;;;;;;;21.27;9.27;;;4.50;99.90;;;;;;4986212;28;20195;-67
2024/01/21 07:49:10;;;;;;;20.17;10.63;;;4.50;99.90;;;;;;4987564;28;20674;-68
2024/01/21 07:51:39;;;;;;;21.13;10.27;;;4.60;99.90;;;;;;4990186;28;20224;-67
2024/01/21 07:54:06;;;;;;;15.73;8.30;;;4.60;99.90;;;;;;4991214;28;20674;-67
2024/01/21 07:56:33;;;;;;;19.17;9.83;;;4.60;99.90;;;;;;4990100;28;20279;-67
2024/01/21 07:59:00;;;;;;;17.60;9.20;;;4.60;99.90;;;;;;4990591;28;20744;-67
2024/01/21 08:01:27;;;;;;;16.37;8.47;;;4.60;99.90;;;;;;4986893;28;20542;-67
2024/01/21 08:03:54;;;;;;;16.60;8.57;;;4.60;99.90;;;;;;4986926;28;20267;-68
2024/01/21 08:06:21;;;;;;;16.93;8.30;;;4.60;99.90;;;;;;4988172;28;20786;-68
2024/01/21 08:08:50;;;;;;;17.27;7.67;;;4.60;99.90;;;;;;4993118;28;20208;-68
2024/01/21 08:11:17;;;;;;;13.80;6.97;;;4.60;99.90;;;;;;4990296;28;20541;-68
2024/01/21 08:13:45;;;;;;;19.20;7.70;;;4.60;99.90;;;;;;4988549;28;20537;-68
2024/01/21 08:16:13;;;;;;;12.10;7.73;;;4.60;99.90;;;;;;4988924;28;20619;-68
2024/01/21 08:18:40;;;;;;;20.57;7.73;;;4.60;99.90;;;;;;4981475;28;20235;-67
2024/01/21 08:21:07;;;;;;;15.93;7.63;;;4.60;99.90;;;;;;4986270;28;20699;-67
2024/01/21 08:23:35;;;;;;;13.67;7.57;;;4.60;99.90;;;;;;4975712;28;20196;-68
2024/01/21 08:26:05;;;;;;;15.80;6.77;;;4.60;99.90;;;;;;4995934;28;20204;-67
2024/01/21 08:28:33;;;;;;;16.17;7.43;;;4.70;99.90;;;;;;4992757;28;20283;-67
2024/01/21 08:31:02;;;;;;;10.53;6.37;;;4.70;99.90;;;;;;4990223;28;20228;-68
2024/01/21 08:33:29;;;;;;;15.33;6.93;;;4.70;99.90;;;;;;4992222;28;20194;-68
2024/01/21 08:35:56;;;;;;;17.33;7.37;;;4.70;99.90;;;;;;4992893;28;20624;-68
2024/01/21 08:38:23;;;;;;;19.50;7.60;;;4.70;99.90;;;;;;4991472;28;20658;-67
2024/01/21 08:40:50;;;;;;;15.90;7.80;;;4.80;99.90;;;;;;4975381;28;20221;-67
2024/01/21 08:43:18;;;;;;;15.27;7.37;;;4.80;99.90;;;;;;4994427;28;20196;-67
2024/01/21 08:45:45;;;;;;;13.03;7.30;;;4.80;99.90;;;;;;4995875;28;20204;-67
2024/01/21 08:48:12;;;;;;;14.70;7.23;;;4.90;99.90;;;;;;4974806;28;20266;-68
2024/01/21 08:50:40;;;;;;;15.70;8.20;;;5.00;99.90;;;;;;4994537;28;20208;-67
2024/01/21 08:53:07;;;;;;;18.13;7.80;;;5.00;99.90;;;;;;4994752;28;20486;-67
2024/01/21 08:55:34;;;;;;;13.03;7.30;;;5.00;99.90;;;;;;4992817;28;20660;-67
2024/01/21 08:58:02;;;;;;;20.83;8.60;;;5.10;99.90;;;;;;5001730;28;20598;-67
2024/01/21 09:00:30;;;;;;;18.70;8.70;;;5.10;99.90;;;;;;4993036;28;20224;-68
2024/01/21 09:02:58;;;;;;;15.83;7.87;;;5.10;99.90;;;;;;4992883;28;20715;-68
2024/01/21 09:05:27;;;;;;;18.20;7.77;;;5.10;99.90;;;;;;4989690;28;20745;-68
2024/01/21 09:07:54;;;;;;;19.13;9.07;;;5.20;99.90;;;;;;4990836;28;20201;-68
2024/01/21 09:10:22;;;;;;;16.43;7.90;;;5.30;99.90;;;;;;4998293;28;20254;-68
2024/01/21 09:12:49;;;;;;;18.73;8.67;;;5.40;99.90;;;;;;4987921;28;20307;-66
2024/01/21 09:15:21;;;;;;;19.97;8.73;;;5.50;99.90;;;;;;4989170;28;20279;-67
2024/01/21 09:17:49;;;;;;;23.33;8.93;;;5.60;99.90;;;;;;4996123;28;20197;-67
2024/01/21 09:20:16;;;;;;;19.30;9.00;;;5.60;99.90;;;;;;4992591;28;20205;-67
2024/01/21 09:22:45;;;;;;;18.03;8.57;;;5.80;99.90;;;;;;4987969;28;20255;-67
2024/01/21 09:25:12;;;;;;;19.47;7.73;;;5.90;99.90;;;;;;4984248;28;20201;-66
2024/01/21 09:27:39;;;;;;;21.20;8.33;;;6.20;99.90;;;;;;4976656;28;20217;-67
2024/01/21 09:30:09;;;;;;;19.53;8.03;;;6.40;99.90;;;;;;4982760;28;20202;-66
2024/01/21 09:32:36;;;;;;;19.67;8.80;;;6.40;99.90;;;;;;4992827;28;20233;-66
2024/01/21 09:35:05;;;;;;;15.97;7.53;;;6.40;99.90;;;;;;4989700;28;20606;-66
2024/01/21 09:37:32;;;;;;;17.30;7.73;;;6.30;99.90;;;;;;4976835;28;20630;-66
2024/01/21 09:39:59;;;;;;;15.07;7.97;;;6.20;99.90;;;;;;4988253;28;20235;-66
2024/01/21 09:42:27;;;;;;;17.27;7.70;;;6.20;99.90;;;;;;4990221;28;20196;-66
2024/01/21 09:44:54;;;;;;;14.83;7.43;;;6.30;99.90;;;;;;4992216;28;20212;-67
2024/01/21 09:47:21;;;;;;;14.27;7.30;;;6.30;99.90;;;;;;4995129;28;20205;-67
2024/01/21 09:49:49;;;;;;;14.67;7.27;;;6.40;99.90;;;;;;4991933;28;20637;-66
2024/01/21 09:52:19;;;;;;;14.07;7.10;;;6.30;99.90;;;;;;4990703;28;20222;-67
2024/01/21 09:54:46;;;;;;;18.80;7.87;;;6.40;99.90;;;;;;4988395;28;20197;-67
2024/01/21 09:57:14;;;;;;;14.17;7.37;;;6.50;99.90;;;;;;4989269;28;20229;-66
2024/01/21 09:59:41;;;;;;;12.77;7.07;;;6.60;99.90;;;;;;4994307;28;20656;-66
2024/01/21 10:02:15;;;;;;;13.67;6.93;;;6.80;99.90;;;;;;4992445;28;20222;-68
2024/01/21 10:04:43;;;;;;;13.17;7.10;;;7.00;99.90;;;;;;4990979;28;20735;-67
2024/01/21 10:07:11;;;;;;;14.43;7.27;;;7.20;99.90;;;;;;4986488;28;20262;-66
2024/01/21 10:09:40;;;;;;;16.50;8.57;;;7.20;99.90;;;;;;4989134;28;20652;-67
2024/01/21 10:12:08;;;;;;;14.40;7.90;;;7.20;99.90;;;;;;4981111;28;20738;-67
2024/01/21 10:14:35;;;;;;;12.27;6.97;;;7.30;99.90;;;;;;4991169;28;20199;-67
2024/01/21 10:17:03;;;;;;;12.53;6.90;;;7.40;99.90;;;;;;4991420;28;21077;-67
2024/01/21 10:19:33;;;;;;;9.90;6.20;;;7.50;99.90;;;;;;4992021;28;20202;-67
2024/01/21 10:22:10;;;;;;;14.10;6.87;;;7.70;99.90;;;;;;4991001;28;20195;-68
2024/01/21 10:24:43;;;;;;;12.43;6.93;;;8.10;99.90;;;;;;4991122;28;20290;-67
2024/01/21 10:27:10;;;;;;;12.83;6.10;;;8.40;99.90;;;;;;4992151;28;20692;-67
2024/01/21 10:29:41;;;;;;;8.77;5.37;;;8.80;99.90;;;;;;4959283;28;20603;-67
2024/01/21 10:32:09;;;;;;;9.00;5.37;;;9.20;99.90;;;;;;4985261;28;20266;-67
2024/01/21 10:34:36;;;;;;;9.00;5.70;;;9.50;99.90;;;;;;4985982;28;20206;-67
2024/01/21 10:37:05;;;;;;;13.33;7.30;;;9.90;99.90;;;;;;4982322;28;20200;-67
2024/01/21 10:39:33;;;;;;;12.07;6.63;;;10.30;97.10;;;;;;4983424;28;20200;-66
2024/01/21 10:42:02;;;;;;;9.17;5.50;;;10.50;96.00;;;;;;4987204;28;20204;-66
2024/01/21 10:44:29;;;;;;;12.63;6.73;;;10.50;96.60;;;;;;4986248;28;20291;-66
2024/01/21 10:46:57;;;;;;;10.57;6.57;;;10.50;96.20;;;;;;4981776;28;20550;-66
2024/01/21 10:49:24;;;;;;;13.37;7.00;;;10.70;95.50;;;;;;4985652;28;20193;-66
2024/01/21 10:51:54;;;;;;;14.13;7.40;;;10.80;95.00;;;;;;4982545;28;20219;-66
2024/01/21 10:54:21;;;;;;;12.30;7.20;;;10.80;94.50;;;;;;4985286;28;20625;-66
2024/01/21 10:56:49;;;;;;;19.17;8.03;;;10.70;93.90;;;;;;4988450;28;20199;-65
2024/01/21 10:59:19;;;;;;;12.50;7.03;;;10.50;93.60;;;;;;4986297;28;20195;-66
2024/01/21 11:01:46;;;;;;;18.20;7.90;;;10.40;94.20;;;;;;4964782;28;20231;-66
2024/01/21 11:04:14;;;;;;;14.37;7.50;;;10.30;94.30;;;;;;4983967;28;20221;-67
2024/01/21 11:06:44;;;;;;;14.27;7.00;;;10.20;94.40;;;;;;4988814;28;20672;-66
2024/01/21 11:09:16;;;;;;;14.07;7.27;;;10.10;93.80;;;;;;4983497;28;20201;-66
2024/01/21 11:11:44;;;;;;;13.90;7.43;;;9.90;94.40;;;;;;4992513;28;20204;-65
2024/01/21 11:14:33;;;;;;;16.23;7.57;;;9.70;94.50;;;;;;4972899;28;20734;-65
2024/01/21 11:17:06;;;;;;;13.00;7.20;;;9.40;94.00;;;;;;4989960;28;20195;-65
2024/01/21 11:19:44;;;;;;;13.43;7.53;;;9.30;94.50;;;;;;4972106;28;20214;-66
2024/01/21 11:22:12;;;;;;;11.60;6.90;;;9.50;93.70;;;;;;4973791;28;20204;-65
2024/01/21 11:24:40;;;;;;;15.70;7.97;;;9.60;93.30;;;;;;4978034;28;20231;-65
2024/01/21 11:27:15;;;;;;;16.33;8.37;;;9.60;92.80;;;;;;4989249;28;20201;-65
2024/01/21 11:29:44;;;;;;;17.43;8.47;;;9.40;92.10;;;;;;4992501;28;20191;-66
2024/01/21 11:32:12;;;;;;;18.17;8.40;;;9.10;92.60;;;;;;4985910;28;20523;-66
2024/01/21 11:34:41;;;;;;;17.93;9.50;;;8.90;93.00;;;;;;4988156;28;20581;-65
2024/01/21 11:37:10;;;;;;;15.60;8.90;;;8.80;93.10;;;;;;4984485;28;20211;-66
2024/01/21 11:39:38;;;;;;;16.37;8.90;;;8.70;93.30;;;;;;4990796;28;20196;-65
2024/01/21 11:42:06;;;;;;;30.50;15.70;;;8.60;93.30;;;;;;4989022;28;20205;-65
2024/01/21 11:44:34;;;;;;;32.80;12.87;;;8.40;93.20;;;;;;4987775;28;20684;-65
2024/01/21 11:47:04;;;;;;;22.20;9.20;;;8.20;93.40;;;;;;4989046;28;20270;-66
2024/01/21 11:49:34;;;;;;;14.30;7.40;;;8.00;93.50;;;;;;4990595;28;20199;-67
2024/01/21 11:52:05;;;;;;;11.60;6.97;;;7.80;93.70;;;;;;4992651;28;20215;-66
2024/01/21 11:54:33;;;;;;;14.03;7.43;;;7.60;94.00;;;;;;4990384;28;20660;-66
2024/01/21 11:57:00;;;;;;;14.03;7.43;;;7.50;94.20;;;;;;4993670;28;20278;-66
2024/01/21 11:59:27;;;;;;;12.23;7.03;;;7.30;94.10;;;;;;4977173;28;20207;-66
2024/01/21 12:01:56;;;;;;;13.13;6.70;;;7.10;94.20;;;;;;4992974;28;20231;-68
2024/01/21 12:04:26;;;;;;;13.60;7.87;;;7.00;94.40;;;;;;4993334;28;20282;-66
2024/01/21 12:06:54;;;;;;;11.83;6.93;;;6.80;94.20;;;;;;4991628;28;20259;-66
2024/01/21 12:09:23;;;;;;;12.00;6.70;;;6.60;94.50;;;;;;4992131;28;20275;-66
2024/01/21 12:11:50;;;;;;;14.70;7.53;;;6.50;94.80;;;;;;4991292;28;20656;-67
2024/01/21 12:14:18;;;;;;;13.73;7.33;;;6.40;95.00;;;;;;4988633;28;20203;-66
2024/01/21 12:16:50;;;;;;;16.43;7.37;;;6.30;95.00;;;;;;4989715;28;20227;-66
2024/01/21 12:19:19;;;;;;;14.70;6.90;;;6.20;95.20;;;;;;4986289;28;20600;-66
2024/01/21 12:21:47;;;;;;;13.07;7.30;;;6.10;95.40;;;;;;4977611;28;20204;-66
2024/01/21 12:24:22;;;;;;;12.50;7.17;;;6.10;95.50;;;;;;4992774;28;20195;-66
2024/01/21 12:26:49;;;;;;;15.27;7.00;;;6.10;95.60;;;;;;4989990;28;20282;-66
2024/01/21 12:29:19;;;;;;;15.40;7.17;;;6.00;95.50;;;;;;4992785;28;20226;-65
2024/01/21 12:31:48;;;;;;;14.50;7.03;;;6.00;95.60;;;;;;4993237;28;20619;-66
2024/01/21 12:34:17;;;;;;;13.03;6.13;;;6.00;95.70;;;;;;4985422;28;20289;-65
2024/01/21 12:36:46;;;;;;;16.13;7.30;;;5.90;95.80;;;;;;4999149;28;20659;-66
2024/01/21 12:39:16;;;;;;;13.40;6.20;;;5.90;96.00;;;;;;4991643;28;20264;-66
2024/01/21 12:41:43;;;;;;;15.40;7.17;;;5.90;96.10;;;;;;4993811;28;20191;-67
2024/01/21 12:44:10;;;;;;;16.30;7.10;;;5.90;96.20;;;;;;4992214;28;21500;-66
2024/01/21 12:46:38;;;;;;;11.20;6.80;;;5.90;96.30;;;;;;4993008;28;20658;-66
2024/01/21 12:49:05;;;;;;;13.80;6.70;;;5.90;96.50;;;;;;4991654;28;20214;-66